sensor_id;sensor_type;location;lat;lon;timestamp;P1;durP1;ratioP1;P2;durP2;ratioP2
12970;SDS011;6550;48.650;8.774;2023-07-20T00:00:03;2.23;;;1.73;;
12970;SDS011;6550;48.650;8.774;2023-07-20T00:02:31;2.73;;;1.63;;
12970;SDS011;6550;48.650;8.774;2023-07-20T00:05:05;4.43;;;1.90;;
12970;SDS011;6550;48.650;8.774;2023-07-20T00:07:32;1.70;;;1.60;;
12970;SDS011;6550;48.650;8.774;2023-07-20T00:09:59;2.33;;;1.97;;
12970;SDS011;6550;48.650;8.774;2023-07-20T00:12:28;2.73;;;2.00;;
12970;SDS011;6550;48.650;8.774;2023-07-20T00:14:55;2.83;;;1.60;;
12970;SDS011;6550;48.650;8.774;2023-07-20T00:17:24;2.43;;;1.83;;
12970;SDS011;6550;48.650;8.774;2023-07-20T00:19:51;1.63;;;1.50;;
12970;SDS011;6550;48.650;8.774;2023-07-20T00:22:20;6.03;;;1.80;;
12970;SDS011;6550;48.650;8.774;2023-07-20T00:24:49;3.37;;;1.60;;
12970;SDS011;6550;48.650;8.774;2023-07-20T00:27:16;2.05;;;1.85;;
12970;SDS011;6550;48.650;8.774;2023-07-20T00:29:43;1.87;;;1.77;;
12970;SDS011;6550;48.650;8.774;2023-07-20T00:32:12;1.90;;;1.67;;
12970;SDS011;6550;48.650;8.774;2023-07-20T00:34:39;3.00;;;1.80;;
12970;SDS011;6550;48.650;8.774;2023-07-20T00:37:08;4.00;;;1.83;;
12970;SDS011;6550;48.650;8.774;2023-07-20T00:39:35;1.87;;;1.63;;
12970;SDS011;6550;48.650;8.774;2023-07-20T00:42:02;3.17;;;1.77;;
12970;SDS011;6550;48.650;8.774;2023-07-20T00:44:29;3.95;;;2.25;;
12970;SDS011;6550;48.650;8.774;2023-07-20T00:46:58;4.47;;;1.80;;
12970;SDS011;6550;48.650;8.774;2023-07-20T00:49:25;2.07;;;1.80;;
12970;SDS011;6550;48.650;8.774;2023-07-20T00:51:52;1.77;;;1.67;;
12970;SDS011;6550;48.650;8.774;2023-07-20T00:54:19;2.10;;;1.90;;
12970;SDS011;6550;48.650;8.774;2023-07-20T00:56:48;1.95;;;1.73;;
12970;SDS011;6550;48.650;8.774;2023-07-20T00:59:16;2.53;;;1.70;;
12970;SDS011;6550;48.650;8.774;2023-07-20T01:01:45;4.43;;;1.90;;
12970;SDS011;6550;48.650;8.774;2023-07-20T01:04:12;2.50;;;2.00;;
12970;SDS011;6550;48.650;8.774;2023-07-20T01:06:53;2.03;;;1.83;;
12970;SDS011;6550;48.650;8.774;2023-07-20T01:12:23;2.87;;;1.90;;
12970;SDS011;6550;48.650;8.774;2023-07-20T01:14:54;3.78;;;1.92;;
12970;SDS011;6550;48.650;8.774;2023-07-20T01:17:21;1.93;;;1.80;;
12970;SDS011;6550;48.650;8.774;2023-07-20T01:19:50;2.23;;;1.77;;
12970;SDS011;6550;48.650;8.774;2023-07-20T01:33:16;2.27;;;2.07;;
12970;SDS011;6550;48.650;8.774;2023-07-20T01:35:46;1.90;;;1.70;;
12970;SDS011;6550;48.650;8.774;2023-07-20T01:38:21;1.60;;;1.50;;
12970;SDS011;6550;48.650;8.774;2023-07-20T01:40:52;2.67;;;1.60;;
12970;SDS011;6550;48.650;8.774;2023-07-20T01:43:19;3.10;;;2.03;;
12970;SDS011;6550;48.650;8.774;2023-07-20T01:45:45;4.57;;;1.90;;
12970;SDS011;6550;48.650;8.774;2023-07-20T01:48:12;1.83;;;1.67;;
12970;SDS011;6550;48.650;8.774;2023-07-20T01:50:42;2.57;;;1.53;;
12970;SDS011;6550;48.650;8.774;2023-07-20T01:53:09;4.43;;;1.73;;
12970;SDS011;6550;48.650;8.774;2023-07-20T01:55:36;2.67;;;1.90;;
12970;SDS011;6550;48.650;8.774;2023-07-20T01:58:05;3.93;;;1.83;;
12970;SDS011;6550;48.650;8.774;2023-07-20T02:00:32;1.90;;;1.77;;
12970;SDS011;6550;48.650;8.774;2023-07-20T02:02:59;3.63;;;1.43;;
12970;SDS011;6550;48.650;8.774;2023-07-20T02:05:28;4.60;;;2.00;;
12970;SDS011;6550;48.650;8.774;2023-07-20T02:07:58;2.30;;;1.87;;
12970;SDS011;6550;48.650;8.774;2023-07-20T02:10:25;2.20;;;2.00;;
12970;SDS011;6550;48.650;8.774;2023-07-20T02:12:54;4.83;;;1.80;;
12970;SDS011;6550;48.650;8.774;2023-07-20T02:15:23;2.35;;;2.00;;
12970;SDS011;6550;48.650;8.774;2023-07-20T02:17:52;2.47;;;1.93;;
12970;SDS011;6550;48.650;8.774;2023-07-20T02:20:19;3.23;;;1.73;;
12970;SDS011;6550;48.650;8.774;2023-07-20T02:22:48;2.97;;;1.97;;
12970;SDS011;6550;48.650;8.774;2023-07-20T02:25:15;2.07;;;1.60;;
12970;SDS011;6550;48.650;8.774;2023-07-20T02:27:44;2.63;;;2.10;;
12970;SDS011;6550;48.650;8.774;2023-07-20T02:30:13;1.70;;;1.60;;
12970;SDS011;6550;48.650;8.774;2023-07-20T02:32:42;2.77;;;2.00;;
12970;SDS011;6550;48.650;8.774;2023-07-20T02:35:12;2.70;;;1.97;;
12970;SDS011;6550;48.650;8.774;2023-07-20T02:37:38;2.60;;;1.70;;
12970;SDS011;6550;48.650;8.774;2023-07-20T02:40:06;2.10;;;1.70;;
12970;SDS011;6550;48.650;8.774;2023-07-20T02:42:33;2.33;;;2.00;;
12970;SDS011;6550;48.650;8.774;2023-07-20T02:45:04;3.38;;;2.00;;
12970;SDS011;6550;48.650;8.774;2023-07-20T02:47:33;2.40;;;1.83;;
12970;SDS011;6550;48.650;8.774;2023-07-20T02:50:07;2.27;;;1.93;;
12970;SDS011;6550;48.650;8.774;2023-07-20T02:52:34;1.57;;;1.47;;
12970;SDS011;6550;48.650;8.774;2023-07-20T02:55:04;3.00;;;1.83;;
12970;SDS011;6550;48.650;8.774;2023-07-20T02:57:31;2.30;;;2.00;;
12970;SDS011;6550;48.650;8.774;2023-07-20T02:59:57;3.30;;;1.83;;
12970;SDS011;6550;48.650;8.774;2023-07-20T03:02:28;1.70;;;1.60;;
12970;SDS011;6550;48.650;8.774;2023-07-20T03:04:56;2.30;;;1.87;;
12970;SDS011;6550;48.650;8.774;2023-07-20T03:07:23;2.43;;;2.00;;
12970;SDS011;6550;48.650;8.774;2023-07-20T03:09:50;2.47;;;1.70;;
12970;SDS011;6550;48.650;8.774;2023-07-20T03:12:17;2.63;;;1.73;;
12970;SDS011;6550;48.650;8.774;2023-07-20T03:14:44;2.73;;;1.80;;
12970;SDS011;6550;48.650;8.774;2023-07-20T03:17:11;5.20;;;2.20;;
12970;SDS011;6550;48.650;8.774;2023-07-20T03:19:40;2.93;;;2.00;;
12970;SDS011;6550;48.650;8.774;2023-07-20T03:22:06;3.20;;;1.70;;
12970;SDS011;6550;48.650;8.774;2023-07-20T03:24:35;2.20;;;2.00;;
12970;SDS011;6550;48.650;8.774;2023-07-20T03:27:02;2.07;;;1.70;;
12970;SDS011;6550;48.650;8.774;2023-07-20T03:29:32;1.93;;;1.70;;
12970;SDS011;6550;48.650;8.774;2023-07-20T03:32:01;3.40;;;1.97;;
12970;SDS011;6550;48.650;8.774;2023-07-20T03:34:29;2.47;;;1.60;;
12970;SDS011;6550;48.650;8.774;2023-07-20T03:36:55;2.70;;;1.67;;
12970;SDS011;6550;48.650;8.774;2023-07-20T03:39:22;2.43;;;1.80;;
12970;SDS011;6550;48.650;8.774;2023-07-20T03:41:49;3.27;;;1.67;;
12970;SDS011;6550;48.650;8.774;2023-07-20T03:44:16;2.63;;;1.80;;
12970;SDS011;6550;48.650;8.774;2023-07-20T03:46:43;2.97;;;1.90;;
12970;SDS011;6550;48.650;8.774;2023-07-20T03:49:12;2.73;;;2.17;;
12970;SDS011;6550;48.650;8.774;2023-07-20T03:51:42;2.77;;;1.70;;
12970;SDS011;6550;48.650;8.774;2023-07-20T03:54:10;5.97;;;1.87;;
12970;SDS011;6550;48.650;8.774;2023-07-20T03:56:39;3.00;;;1.90;;
12970;SDS011;6550;48.650;8.774;2023-07-20T03:59:06;2.63;;;2.10;;
12970;SDS011;6550;48.650;8.774;2023-07-20T04:01:33;2.50;;;2.20;;
12970;SDS011;6550;48.650;8.774;2023-07-20T04:04:07;1.97;;;1.63;;
12970;SDS011;6550;48.650;8.774;2023-07-20T04:06:34;3.37;;;2.20;;
12970;SDS011;6550;48.650;8.774;2023-07-20T04:09:02;2.50;;;2.17;;
12970;SDS011;6550;48.650;8.774;2023-07-20T04:11:31;2.10;;;1.90;;
12970;SDS011;6550;48.650;8.774;2023-07-20T04:13:57;2.23;;;1.70;;
12970;SDS011;6550;48.650;8.774;2023-07-20T04:16:24;2.67;;;1.93;;
12970;SDS011;6550;48.650;8.774;2023-07-20T04:18:54;4.40;;;2.20;;
12970;SDS011;6550;48.650;8.774;2023-07-20T04:21:21;2.00;;;1.90;;
12970;SDS011;6550;48.650;8.774;2023-07-20T04:23:48;3.93;;;1.63;;
12970;SDS011;6550;48.650;8.774;2023-07-20T04:26:15;2.33;;;2.00;;
12970;SDS011;6550;48.650;8.774;2023-07-20T04:28:45;3.15;;;2.03;;
12970;SDS011;6550;48.650;8.774;2023-07-20T04:31:13;3.60;;;1.80;;
12970;SDS011;6550;48.650;8.774;2023-07-20T04:33:43;2.00;;;1.90;;
12970;SDS011;6550;48.650;8.774;2023-07-20T04:36:09;2.83;;;1.77;;
12970;SDS011;6550;48.650;8.774;2023-07-20T04:38:36;2.43;;;1.93;;
12970;SDS011;6550;48.650;8.774;2023-07-20T04:41:03;2.40;;;1.90;;
12970;SDS011;6550;48.650;8.774;2023-07-20T04:43:30;2.23;;;2.03;;
12970;SDS011;6550;48.650;8.774;2023-07-20T04:45:59;2.40;;;1.80;;
12970;SDS011;6550;48.650;8.774;2023-07-20T04:48:25;5.90;;;1.90;;
12970;SDS011;6550;48.650;8.774;2023-07-20T04:50:54;2.20;;;2.07;;
12970;SDS011;6550;48.650;8.774;2023-07-20T04:53:24;2.33;;;1.90;;
12970;SDS011;6550;48.650;8.774;2023-07-20T04:55:51;2.03;;;1.90;;
12970;SDS011;6550;48.650;8.774;2023-07-20T04:58:21;2.23;;;2.03;;
12970;SDS011;6550;48.650;8.774;2023-07-20T05:00:48;2.03;;;1.80;;
12970;SDS011;6550;48.650;8.774;2023-07-20T05:03:17;3.87;;;2.00;;
12970;SDS011;6550;48.650;8.774;2023-07-20T05:05:47;2.57;;;1.73;;
12970;SDS011;6550;48.650;8.774;2023-07-20T05:08:15;2.90;;;2.10;;
12970;SDS011;6550;48.650;8.774;2023-07-20T05:10:43;2.90;;;1.90;;
12970;SDS011;6550;48.650;8.774;2023-07-20T05:13:12;3.00;;;1.97;;
12970;SDS011;6550;48.650;8.774;2023-07-20T05:15:43;2.80;;;1.73;;
12970;SDS011;6550;48.650;8.774;2023-07-20T05:18:10;7.67;;;2.27;;
12970;SDS011;6550;48.650;8.774;2023-07-20T05:20:46;2.77;;;2.00;;
12970;SDS011;6550;48.650;8.774;2023-07-20T05:23:13;3.90;;;2.00;;
12970;SDS011;6550;48.650;8.774;2023-07-20T05:25:41;2.57;;;1.83;;
12970;SDS011;6550;48.650;8.774;2023-07-20T05:28:08;2.17;;;1.73;;
12970;SDS011;6550;48.650;8.774;2023-07-20T05:30:35;3.37;;;2.10;;
12970;SDS011;6550;48.650;8.774;2023-07-20T05:33:04;4.60;;;2.00;;
12970;SDS011;6550;48.650;8.774;2023-07-20T05:35:31;6.93;;;2.20;;
12970;SDS011;6550;48.650;8.774;2023-07-20T05:38:00;4.13;;;2.43;;
12970;SDS011;6550;48.650;8.774;2023-07-20T05:40:27;4.50;;;2.17;;
12970;SDS011;6550;48.650;8.774;2023-07-20T05:42:56;2.10;;;1.97;;
12970;SDS011;6550;48.650;8.774;2023-07-20T05:45:23;2.83;;;2.07;;
12970;SDS011;6550;48.650;8.774;2023-07-20T05:47:50;2.10;;;1.80;;
12970;SDS011;6550;48.650;8.774;2023-07-20T05:50:19;4.40;;;2.30;;
12970;SDS011;6550;48.650;8.774;2023-07-20T05:52:51;3.20;;;2.07;;
12970;SDS011;6550;48.650;8.774;2023-07-20T05:55:19;4.43;;;2.43;;
12970;SDS011;6550;48.650;8.774;2023-07-20T05:57:49;4.43;;;2.40;;
12970;SDS011;6550;48.650;8.774;2023-07-20T06:00:16;3.90;;;2.03;;
12970;SDS011;6550;48.650;8.774;2023-07-20T06:02:45;4.77;;;2.30;;
12970;SDS011;6550;48.650;8.774;2023-07-20T06:05:14;3.13;;;2.20;;
12970;SDS011;6550;48.650;8.774;2023-07-20T06:07:46;5.00;;;2.03;;
12970;SDS011;6550;48.650;8.774;2023-07-20T06:10:13;2.57;;;2.33;;
12970;SDS011;6550;48.650;8.774;2023-07-20T06:12:42;4.93;;;1.97;;
12970;SDS011;6550;48.650;8.774;2023-07-20T06:15:25;2.53;;;2.03;;
12970;SDS011;6550;48.650;8.774;2023-07-20T06:17:57;2.40;;;2.10;;
12970;SDS011;6550;48.650;8.774;2023-07-20T06:20:24;2.63;;;1.93;;
12970;SDS011;6550;48.650;8.774;2023-07-20T06:22:52;3.70;;;2.17;;
12970;SDS011;6550;48.650;8.774;2023-07-20T06:25:19;4.63;;;2.43;;
12970;SDS011;6550;48.650;8.774;2023-07-20T06:27:48;4.13;;;2.07;;
12970;SDS011;6550;48.650;8.774;2023-07-20T06:30:16;3.95;;;2.78;;
12970;SDS011;6550;48.650;8.774;2023-07-20T06:32:43;3.00;;;2.10;;
12970;SDS011;6550;48.650;8.774;2023-07-20T06:35:10;2.00;;;1.80;;
12970;SDS011;6550;48.650;8.774;2023-07-20T06:37:37;4.17;;;2.13;;
12970;SDS011;6550;48.650;8.774;2023-07-20T06:40:04;3.53;;;2.00;;
12970;SDS011;6550;48.650;8.774;2023-07-20T06:42:34;2.40;;;2.20;;
12970;SDS011;6550;48.650;8.774;2023-07-20T06:45:06;2.00;;;1.80;;
12970;SDS011;6550;48.650;8.774;2023-07-20T06:47:38;2.50;;;1.90;;
12970;SDS011;6550;48.650;8.774;2023-07-20T06:50:07;2.90;;;1.87;;
12970;SDS011;6550;48.650;8.774;2023-07-20T06:52:35;2.47;;;2.10;;
12970;SDS011;6550;48.650;8.774;2023-07-20T06:55:06;3.10;;;1.80;;
12970;SDS011;6550;48.650;8.774;2023-07-20T06:57:35;4.80;;;2.10;;
12970;SDS011;6550;48.650;8.774;2023-07-20T07:00:04;5.13;;;2.10;;
12970;SDS011;6550;48.650;8.774;2023-07-20T07:02:33;2.93;;;2.23;;
12970;SDS011;6550;48.650;8.774;2023-07-20T07:05:01;2.70;;;1.80;;
12970;SDS011;6550;48.650;8.774;2023-07-20T07:07:44;2.30;;;2.03;;
12970;SDS011;6550;48.650;8.774;2023-07-20T07:10:13;3.50;;;1.83;;
12970;SDS011;6550;48.650;8.774;2023-07-20T07:12:40;4.43;;;2.00;;
12970;SDS011;6550;48.650;8.774;2023-07-20T07:15:07;3.70;;;2.10;;
12970;SDS011;6550;48.650;8.774;2023-07-20T07:17:37;3.40;;;2.20;;
12970;SDS011;6550;48.650;8.774;2023-07-20T07:20:05;3.03;;;1.73;;
12970;SDS011;6550;48.650;8.774;2023-07-20T07:22:45;4.40;;;1.70;;
12970;SDS011;6550;48.650;8.774;2023-07-20T07:25:13;3.40;;;1.80;;
12970;SDS011;6550;48.650;8.774;2023-07-20T07:27:43;3.83;;;1.90;;
12970;SDS011;6550;48.650;8.774;2023-07-20T07:30:10;4.57;;;2.10;;
12970;SDS011;6550;48.650;8.774;2023-07-20T07:32:40;2.88;;;2.05;;
12970;SDS011;6550;48.650;8.774;2023-07-20T07:35:07;2.50;;;1.80;;
12970;SDS011;6550;48.650;8.774;2023-07-20T07:37:34;2.93;;;1.90;;
12970;SDS011;6550;48.650;8.774;2023-07-20T07:40:25;5.27;;;2.30;;
12970;SDS011;6550;48.650;8.774;2023-07-20T07:42:54;5.10;;;1.97;;
12970;SDS011;6550;48.650;8.774;2023-07-20T07:45:20;2.13;;;1.70;;
12970;SDS011;6550;48.650;8.774;2023-07-20T07:47:47;5.87;;;2.40;;
12970;SDS011;6550;48.650;8.774;2023-07-20T07:50:14;4.53;;;1.90;;
12970;SDS011;6550;48.650;8.774;2023-07-20T07:52:41;2.97;;;2.00;;
12970;SDS011;6550;48.650;8.774;2023-07-20T07:55:10;2.40;;;1.90;;
12970;SDS011;6550;48.650;8.774;2023-07-20T07:57:37;3.83;;;2.07;;
12970;SDS011;6550;48.650;8.774;2023-07-20T08:00:04;4.47;;;1.73;;
12970;SDS011;6550;48.650;8.774;2023-07-20T08:02:37;3.10;;;1.83;;
12970;SDS011;6550;48.650;8.774;2023-07-20T08:05:08;3.63;;;1.70;;
12970;SDS011;6550;48.650;8.774;2023-07-20T08:07:37;5.00;;;1.83;;
12970;SDS011;6550;48.650;8.774;2023-07-20T08:10:06;3.40;;;1.80;;
12970;SDS011;6550;48.650;8.774;2023-07-20T08:12:34;3.00;;;2.03;;
12970;SDS011;6550;48.650;8.774;2023-07-20T08:15:01;2.80;;;1.90;;
12970;SDS011;6550;48.650;8.774;2023-07-20T08:17:30;2.93;;;1.60;;
12970;SDS011;6550;48.650;8.774;2023-07-20T08:19:58;4.87;;;1.77;;
12970;SDS011;6550;48.650;8.774;2023-07-20T08:22:27;2.57;;;2.03;;
12970;SDS011;6550;48.650;8.774;2023-07-20T08:24:54;2.67;;;1.60;;
12970;SDS011;6550;48.650;8.774;2023-07-20T08:27:25;2.73;;;1.60;;
12970;SDS011;6550;48.650;8.774;2023-07-20T08:29:52;1.70;;;1.33;;
12970;SDS011;6550;48.650;8.774;2023-07-20T08:32:18;5.80;;;1.60;;
12970;SDS011;6550;48.650;8.774;2023-07-20T08:34:45;2.60;;;1.60;;
12970;SDS011;6550;48.650;8.774;2023-07-20T08:37:15;6.93;;;1.20;;
12970;SDS011;6550;48.650;8.774;2023-07-20T08:39:41;2.47;;;1.83;;
12970;SDS011;6550;48.650;8.774;2023-07-20T08:42:09;2.00;;;1.27;;
12970;SDS011;6550;48.650;8.774;2023-07-20T08:44:36;2.13;;;1.40;;
12970;SDS011;6550;48.650;8.774;2023-07-20T08:47:05;3.33;;;1.50;;
12970;SDS011;6550;48.650;8.774;2023-07-20T08:49:37;2.03;;;1.40;;
12970;SDS011;6550;48.650;8.774;2023-07-20T08:52:08;2.40;;;1.30;;
12970;SDS011;6550;48.650;8.774;2023-07-20T08:54:36;10.70;;;1.40;;
12970;SDS011;6550;48.650;8.774;2023-07-20T08:57:06;3.33;;;1.60;;
12970;SDS011;6550;48.650;8.774;2023-07-20T08:59:34;2.10;;;1.73;;
12970;SDS011;6550;48.650;8.774;2023-07-20T09:02:04;4.83;;;1.30;;
12970;SDS011;6550;48.650;8.774;2023-07-20T09:04:37;1.83;;;1.53;;
12970;SDS011;6550;48.650;8.774;2023-07-20T09:07:04;4.78;;;1.50;;
12970;SDS011;6550;48.650;8.774;2023-07-20T09:09:31;2.30;;;1.50;;
12970;SDS011;6550;48.650;8.774;2023-07-20T09:11:57;3.07;;;1.30;;
12970;SDS011;6550;48.650;8.774;2023-07-20T09:14:24;2.87;;;1.40;;
12970;SDS011;6550;48.650;8.774;2023-07-20T09:16:56;1.63;;;1.50;;
12970;SDS011;6550;48.650;8.774;2023-07-20T09:19:25;4.30;;;1.27;;
12970;SDS011;6550;48.650;8.774;2023-07-20T09:21:52;1.77;;;1.30;;
12970;SDS011;6550;48.650;8.774;2023-07-20T09:24:21;3.10;;;1.30;;
12970;SDS011;6550;48.650;8.774;2023-07-20T09:26:51;1.40;;;1.30;;
12970;SDS011;6550;48.650;8.774;2023-07-20T09:29:21;2.20;;;1.40;;
12970;SDS011;6550;48.650;8.774;2023-07-20T09:32:03;1.70;;;1.30;;
12970;SDS011;6550;48.650;8.774;2023-07-20T09:34:49;1.27;;;1.20;;
12970;SDS011;6550;48.650;8.774;2023-07-20T09:37:21;1.87;;;1.10;;
12970;SDS011;6550;48.650;8.774;2023-07-20T09:39:49;1.70;;;1.10;;
12970;SDS011;6550;48.650;8.774;2023-07-20T09:42:22;2.63;;;1.23;;
12970;SDS011;6550;48.650;8.774;2023-07-20T09:44:54;2.27;;;1.20;;
12970;SDS011;6550;48.650;8.774;2023-07-20T09:47:23;2.27;;;1.30;;
12970;SDS011;6550;48.650;8.774;2023-07-20T09:50:03;1.37;;;1.20;;
12970;SDS011;6550;48.650;8.774;2023-07-20T09:52:34;2.57;;;1.50;;
12970;SDS011;6550;48.650;8.774;2023-07-20T09:55:05;1.47;;;1.33;;
12970;SDS011;6550;48.650;8.774;2023-07-20T09:57:35;1.63;;;1.10;;
12970;SDS011;6550;48.650;8.774;2023-07-20T10:00:06;0.93;;;0.93;;
12970;SDS011;6550;48.650;8.774;2023-07-20T10:02:42;2.85;;;1.25;;
12970;SDS011;6550;48.650;8.774;2023-07-20T10:05:13;1.33;;;1.13;;
12970;SDS011;6550;48.650;8.774;2023-07-20T10:07:45;1.53;;;1.30;;
12970;SDS011;6550;48.650;8.774;2023-07-20T10:10:14;2.30;;;1.27;;
12970;SDS011;6550;48.650;8.774;2023-07-20T10:12:47;2.53;;;1.15;;
12970;SDS011;6550;48.650;8.774;2023-07-20T10:15:29;1.77;;;1.27;;
12970;SDS011;6550;48.650;8.774;2023-07-20T10:18:04;1.50;;;1.10;;
12970;SDS011;6550;48.650;8.774;2023-07-20T10:20:43;1.40;;;1.30;;
12970;SDS011;6550;48.650;8.774;2023-07-20T10:23:15;2.40;;;1.20;;
12970;SDS011;6550;48.650;8.774;2023-07-20T10:25:44;2.77;;;1.30;;
12970;SDS011;6550;48.650;8.774;2023-07-20T10:28:12;1.50;;;1.00;;
12970;SDS011;6550;48.650;8.774;2023-07-20T10:30:40;1.80;;;1.20;;
12970;SDS011;6550;48.650;8.774;2023-07-20T10:33:12;1.03;;;0.90;;
12970;SDS011;6550;48.650;8.774;2023-07-20T10:35:56;1.42;;;1.13;;
12970;SDS011;6550;48.650;8.774;2023-07-20T10:38:38;1.13;;;1.03;;
12970;SDS011;6550;48.650;8.774;2023-07-20T10:41:19;1.20;;;1.10;;
12970;SDS011;6550;48.650;8.774;2023-07-20T10:43:50;2.10;;;0.93;;
12970;SDS011;6550;48.650;8.774;2023-07-20T10:49:09;1.30;;;1.03;;
12970;SDS011;6550;48.650;8.774;2023-07-20T10:54:49;2.43;;;1.30;;
12970;SDS011;6550;48.650;8.774;2023-07-20T10:56:57;1.43;;;1.17;;
12970;SDS011;6550;48.650;8.774;2023-07-20T10:59:45;2.13;;;1.23;;
12970;SDS011;6550;48.650;8.774;2023-07-20T11:02:17;2.87;;;1.20;;
12970;SDS011;6550;48.650;8.774;2023-07-20T11:04:46;1.27;;;1.10;;
12970;SDS011;6550;48.650;8.774;2023-07-20T11:07:18;1.40;;;1.30;;
12970;SDS011;6550;48.650;8.774;2023-07-20T11:10:14;1.90;;;1.20;;
12970;SDS011;6550;48.650;8.774;2023-07-20T11:18:25;4.38;;;1.33;;
12970;SDS011;6550;48.650;8.774;2023-07-20T11:20:55;2.60;;;1.40;;
12970;SDS011;6550;48.650;8.774;2023-07-20T11:23:22;3.73;;;1.40;;
12970;SDS011;6550;48.650;8.774;2023-07-20T11:25:49;3.67;;;1.57;;
12970;SDS011;6550;48.650;8.774;2023-07-20T11:28:18;1.40;;;1.20;;
12970;SDS011;6550;48.650;8.774;2023-07-20T11:30:49;1.07;;;0.97;;
12970;SDS011;6550;48.650;8.774;2023-07-20T11:33:21;1.90;;;0.90;;
12970;SDS011;6550;48.650;8.774;2023-07-20T11:35:48;2.53;;;1.20;;
12970;SDS011;6550;48.650;8.774;2023-07-20T11:38:17;1.33;;;1.10;;
12970;SDS011;6550;48.650;8.774;2023-07-20T11:40:44;2.10;;;1.10;;
12970;SDS011;6550;48.650;8.774;2023-07-20T11:43:16;1.48;;;1.33;;
12970;SDS011;6550;48.650;8.774;2023-07-20T11:45:45;2.97;;;1.23;;
12970;SDS011;6550;48.650;8.774;2023-07-20T11:48:18;1.07;;;1.00;;
12970;SDS011;6550;48.650;8.774;2023-07-20T11:50:44;2.47;;;0.97;;
12970;SDS011;6550;48.650;8.774;2023-07-20T11:53:14;1.20;;;1.10;;
12970;SDS011;6550;48.650;8.774;2023-07-20T11:55:44;1.23;;;1.13;;
12970;SDS011;6550;48.650;8.774;2023-07-20T11:58:12;1.70;;;1.17;;
12970;SDS011;6550;48.650;8.774;2023-07-20T12:00:43;3.37;;;1.60;;
12970;SDS011;6550;48.650;8.774;2023-07-20T12:03:12;1.63;;;1.27;;
12970;SDS011;6550;48.650;8.774;2023-07-20T12:05:39;1.27;;;1.17;;
12970;SDS011;6550;48.650;8.774;2023-07-20T12:08:11;1.77;;;1.00;;
12970;SDS011;6550;48.650;8.774;2023-07-20T12:10:40;2.80;;;1.23;;
12970;SDS011;6550;48.650;8.774;2023-07-20T12:13:12;1.27;;;1.03;;
12970;SDS011;6550;48.650;8.774;2023-07-20T12:15:39;2.60;;;1.10;;
12970;SDS011;6550;48.650;8.774;2023-07-20T12:18:08;0.93;;;0.93;;
12970;SDS011;6550;48.650;8.774;2023-07-20T12:20:36;1.37;;;1.27;;
12970;SDS011;6550;48.650;8.774;2023-07-20T12:23:10;2.80;;;1.20;;
12970;SDS011;6550;48.650;8.774;2023-07-20T12:25:41;2.67;;;1.27;;
12970;SDS011;6550;48.650;8.774;2023-07-20T12:28:12;1.23;;;1.13;;
12970;SDS011;6550;48.650;8.774;2023-07-20T12:30:41;1.40;;;1.10;;
12970;SDS011;6550;48.650;8.774;2023-07-20T12:33:11;4.63;;;1.13;;
12970;SDS011;6550;48.650;8.774;2023-07-20T12:35:41;2.27;;;1.03;;
12970;SDS011;6550;48.650;8.774;2023-07-20T12:38:11;2.97;;;1.00;;
12970;SDS011;6550;48.650;8.774;2023-07-20T12:40:38;7.80;;;1.40;;
12970;SDS011;6550;48.650;8.774;2023-07-20T12:43:06;1.80;;;1.07;;
12970;SDS011;6550;48.650;8.774;2023-07-20T12:45:33;1.30;;;1.20;;
12970;SDS011;6550;48.650;8.774;2023-07-20T12:48:02;1.30;;;0.83;;
12970;SDS011;6550;48.650;8.774;2023-07-20T12:50:29;2.37;;;1.03;;
12970;SDS011;6550;48.650;8.774;2023-07-20T12:52:56;1.43;;;1.10;;
12970;SDS011;6550;48.650;8.774;2023-07-20T12:55:25;1.20;;;1.10;;
12970;SDS011;6550;48.650;8.774;2023-07-20T12:57:52;1.20;;;1.10;;
12970;SDS011;6550;48.650;8.774;2023-07-20T13:00:19;1.13;;;1.03;;
12970;SDS011;6550;48.650;8.774;2023-07-20T13:02:49;1.97;;;1.07;;
12970;SDS011;6550;48.650;8.774;2023-07-20T13:05:35;1.15;;;1.05;;
12970;SDS011;6550;48.650;8.774;2023-07-20T13:08:06;2.70;;;1.00;;
12970;SDS011;6550;48.650;8.774;2023-07-20T13:10:42;3.50;;;1.20;;
12970;SDS011;6550;48.650;8.774;2023-07-20T13:13:11;1.45;;;0.98;;
12970;SDS011;6550;48.650;8.774;2023-07-20T13:15:44;1.37;;;1.07;;
12970;SDS011;6550;48.650;8.774;2023-07-20T13:18:15;1.07;;;1.00;;
12970;SDS011;6550;48.650;8.774;2023-07-20T13:20:42;2.10;;;0.90;;
12970;SDS011;6550;48.650;8.774;2023-07-20T13:23:09;1.30;;;1.07;;
12970;SDS011;6550;48.650;8.774;2023-07-20T13:25:35;1.00;;;0.90;;
12970;SDS011;6550;48.650;8.774;2023-07-20T13:28:05;3.47;;;1.20;;
12970;SDS011;6550;48.650;8.774;2023-07-20T13:30:31;1.33;;;1.23;;
12970;SDS011;6550;48.650;8.774;2023-07-20T13:32:59;1.43;;;0.97;;
12970;SDS011;6550;48.650;8.774;2023-07-20T13:35:31;2.17;;;1.17;;
12970;SDS011;6550;48.650;8.774;2023-07-20T13:38:01;2.27;;;1.50;;
12970;SDS011;6550;48.650;8.774;2023-07-20T13:40:28;1.70;;;1.03;;
12970;SDS011;6550;48.650;8.774;2023-07-20T13:42:57;2.27;;;1.03;;
12970;SDS011;6550;48.650;8.774;2023-07-20T13:45:25;1.43;;;1.10;;
12970;SDS011;6550;48.650;8.774;2023-07-20T13:47:52;1.73;;;1.10;;
12970;SDS011;6550;48.650;8.774;2023-07-20T13:50:19;2.70;;;1.23;;
12970;SDS011;6550;48.650;8.774;2023-07-20T13:52:54;2.83;;;1.17;;
12970;SDS011;6550;48.650;8.774;2023-07-20T13:55:23;0.97;;;0.93;;
12970;SDS011;6550;48.650;8.774;2023-07-20T13:57:53;3.30;;;1.20;;
12970;SDS011;6550;48.650;8.774;2023-07-20T14:00:22;1.43;;;0.87;;
12970;SDS011;6550;48.650;8.774;2023-07-20T14:02:56;1.50;;;1.20;;
12970;SDS011;6550;48.650;8.774;2023-07-20T14:05:26;2.00;;;1.03;;
12970;SDS011;6550;48.650;8.774;2023-07-20T14:07:58;3.67;;;1.20;;
12970;SDS011;6550;48.650;8.774;2023-07-20T14:10:25;1.20;;;1.10;;
12970;SDS011;6550;48.650;8.774;2023-07-20T14:12:51;3.27;;;1.27;;
12970;SDS011;6550;48.650;8.774;2023-07-20T14:15:18;1.90;;;1.30;;
12970;SDS011;6550;48.650;8.774;2023-07-20T14:17:46;3.30;;;1.20;;
12970;SDS011;6550;48.650;8.774;2023-07-20T14:20:12;1.00;;;1.00;;
12970;SDS011;6550;48.650;8.774;2023-07-20T14:22:42;2.13;;;1.27;;
12970;SDS011;6550;48.650;8.774;2023-07-20T14:25:12;3.37;;;1.10;;
12970;SDS011;6550;48.650;8.774;2023-07-20T14:27:39;1.90;;;1.30;;
12970;SDS011;6550;48.650;8.774;2023-07-20T14:30:11;1.53;;;1.10;;
12970;SDS011;6550;48.650;8.774;2023-07-20T14:32:38;1.47;;;1.27;;
12970;SDS011;6550;48.650;8.774;2023-07-20T14:35:11;1.70;;;1.30;;
12970;SDS011;6550;48.650;8.774;2023-07-20T14:37:40;1.63;;;1.30;;
12970;SDS011;6550;48.650;8.774;2023-07-20T14:40:07;2.30;;;1.30;;
12970;SDS011;6550;48.650;8.774;2023-07-20T14:42:34;1.00;;;0.90;;
12970;SDS011;6550;48.650;8.774;2023-07-20T14:45:06;3.63;;;1.20;;
12970;SDS011;6550;48.650;8.774;2023-07-20T14:47:34;3.17;;;1.20;;
12970;SDS011;6550;48.650;8.774;2023-07-20T14:50:02;2.07;;;1.03;;
12970;SDS011;6550;48.650;8.774;2023-07-20T14:52:32;3.07;;;1.60;;
12970;SDS011;6550;48.650;8.774;2023-07-20T14:54:59;2.93;;;1.27;;
12970;SDS011;6550;48.650;8.774;2023-07-20T14:57:26;2.20;;;1.10;;
12970;SDS011;6550;48.650;8.774;2023-07-20T14:59:52;5.57;;;1.23;;
12970;SDS011;6550;48.650;8.774;2023-07-20T15:02:19;2.10;;;1.23;;
12970;SDS011;6550;48.650;8.774;2023-07-20T15:04:49;1.00;;;0.90;;
12970;SDS011;6550;48.650;8.774;2023-07-20T15:07:20;6.17;;;1.23;;
12970;SDS011;6550;48.650;8.774;2023-07-20T15:09:50;6.63;;;1.20;;
12970;SDS011;6550;48.650;8.774;2023-07-20T15:12:17;4.17;;;1.30;;
12970;SDS011;6550;48.650;8.774;2023-07-20T15:14:43;6.50;;;1.50;;
12970;SDS011;6550;48.650;8.774;2023-07-20T15:17:13;2.20;;;1.13;;
12970;SDS011;6550;48.650;8.774;2023-07-20T15:19:42;0.87;;;0.87;;
12970;SDS011;6550;48.650;8.774;2023-07-20T15:22:09;1.60;;;1.10;;
12970;SDS011;6550;48.650;8.774;2023-07-20T15:24:39;1.70;;;0.93;;
12970;SDS011;6550;48.650;8.774;2023-07-20T15:27:06;2.73;;;1.40;;
12970;SDS011;6550;48.650;8.774;2023-07-20T15:29:37;1.43;;;1.13;;
12970;SDS011;6550;48.650;8.774;2023-07-20T15:32:07;2.70;;;1.40;;
12970;SDS011;6550;48.650;8.774;2023-07-20T15:34:35;1.47;;;1.10;;
12970;SDS011;6550;48.650;8.774;2023-07-20T15:37:01;2.60;;;1.10;;